Time;durP1;ratioP1;P1;durP2;ratioP2;P2;SDS_P1;SDS_P2;PMS_P1;PMS_P2;Temp;Humidity;BMP_temperature;BMP_pressure;BME280_temperature;BME280_humidity;BME280_pressure;Samples;Min_cycle;Max_cycle;Signal;HPM_P1;HPM_P2
2024/02/22 00:00:25;;;;;;;0.50;0.50;;;;;;;10.83;48.86;95917.41;29395;242;63005;-67
2024/02/22 00:00:57;;;;;;;0.57;0.57;;;;;;;10.82;49.08;95937.50;29395;215;63009;-54
2024/02/22 00:01:28;;;;;;;0.50;0.50;;;;;;;10.79;49.59;95916.44;29394;242;64009;-54
2024/02/22 00:01:59;;;;;;;0.50;0.50;;;;;;;10.77;49.48;95913.22;29395;206;63009;-53
2024/02/22 00:02:32;;;;;;;0.50;0.50;;;;;;;10.75;49.90;95927.12;29395;301;63005;-53
2024/02/22 00:03:07;;;;;;;0.60;0.60;;;;;;;10.79;50.08;95924.56;29395;274;63025;-54
2024/02/22 00:03:39;;;;;;;0.50;0.50;;;;;;;10.74;50.69;95912.75;29395;228;63005;-53
2024/02/22 00:04:10;;;;;;;0.50;0.50;;;;;;;10.69;50.63;95914.84;29395;222;63009;-53
2024/02/22 00:04:41;;;;;;;0.50;0.50;;;;;;;10.64;50.44;95929.34;29395;306;63004;-54
2024/02/22 00:05:12;;;;;;;0.60;0.60;;;;;;;10.65;50.26;95901.09;29395;246;63009;-54
2024/02/22 00:05:44;;;;;;;0.50;0.50;;;;;;;10.66;50.48;95897.28;29394;214;64004;-57
2024/02/22 00:06:15;;;;;;;0.50;0.50;;;;;;;10.65;50.40;95903.81;29395;214;63009;-54
2024/02/22 00:06:46;;;;;;;0.50;0.50;;;;;;;10.65;50.57;95908.44;29394;227;64008;-61
2024/02/22 00:07:17;;;;;;;0.50;0.50;;;;;;;10.64;50.38;95906.84;29395;208;63008;-52
2024/02/22 00:07:49;;;;;;;0.50;0.50;;;;;;;10.63;50.55;95914.19;29395;214;63005;-58
2024/02/22 00:08:20;;;;;;;0.57;0.57;;;;;;;10.69;50.35;95901.28;29395;214;63009;-58
2024/02/22 00:08:51;;;;;;;0.50;0.50;;;;;;;10.66;50.92;95900.00;29395;197;63005;-55
2024/02/22 00:09:23;;;;;;;0.50;0.50;;;;;;;10.69;51.01;95906.72;29395;233;63009;-57
2024/02/22 00:09:54;;;;;;;0.57;0.57;;;;;;;10.70;51.47;95898.25;29395;208;63004;-53
2024/02/22 00:10:29;;;;;;;0.50;0.50;;;;;;;10.63;51.09;95897.91;29395;202;63009;-53
2024/02/22 00:11:01;;;;;;;0.50;0.50;;;;;;;10.60;51.18;95903.97;29395;210;63005;-54
2024/02/22 00:11:35;;;;;;;0.50;0.50;;;;;;;10.57;51.55;95899.19;29395;218;63009;-55
2024/02/22 00:12:07;;;;;;;0.50;0.50;;;;;;;10.61;51.35;95893.91;29394;219;64009;-54
2024/02/22 00:12:41;;;;;;;0.50;0.50;;;;;;;10.63;51.33;95897.12;29395;202;63009;-57
2024/02/22 00:13:14;;;;;;;0.50;0.50;;;;;;;10.68;51.60;95894.25;29395;235;63004;-52
2024/02/22 00:13:46;;;;;;;0.50;0.50;;;;;;;10.62;51.75;95890.88;29395;207;63017;-52
2024/02/22 00:14:18;;;;;;;0.52;0.52;;;;;;;10.68;51.51;95900.47;29395;197;63004;-54
2024/02/22 00:14:52;;;;;;;0.47;0.47;;;;;;;10.66;51.36;95897.28;29395;221;63008;-53
2024/02/22 00:15:23;;;;;;;0.50;0.50;;;;;;;10.69;51.82;95907.50;29395;219;63005;-55
2024/02/22 00:15:55;;;;;;;0.50;0.50;;;;;;;10.70;51.60;95898.25;29395;198;63009;-55
2024/02/22 00:16:27;;;;;;;0.50;0.50;;;;;;;10.72;51.43;95885.16;29395;218;63005;-54
2024/02/22 00:16:58;;;;;;;0.50;0.50;;;;;;;10.67;51.99;95896.16;29395;215;63009;-54
2024/02/22 00:17:29;;;;;;;0.50;0.50;;;;;;;10.63;51.87;95892.50;29394;238;64009;-54
2024/02/22 00:18:03;;;;;;;0.50;0.50;;;;;;;10.60;51.57;95892.31;29395;227;63017;-53
2024/02/22 00:18:35;;;;;;;0.52;0.52;;;;;;;10.58;51.87;95879.06;29395;197;63005;-59
2024/02/22 00:19:07;;;;;;;0.50;0.50;;;;;;;10.61;51.81;95888.50;29395;214;63009;-54
2024/02/22 00:19:38;;;;;;;0.50;0.50;;;;;;;10.60;52.27;95887.69;29395;250;63004;-56
2024/02/22 00:20:14;;;;;;;0.50;0.50;;;;;;;10.55;51.94;95887.84;29395;204;63009;-58
2024/02/22 00:20:46;;;;;;;0.50;0.50;;;;;;;10.51;52.21;95895.00;29395;238;63004;-52
2024/02/22 00:21:19;;;;;;;0.50;0.50;;;;;;;10.47;52.35;95871.53;29395;244;63009;-53
2024/02/22 00:21:51;;;;;;;0.50;0.50;;;;;;;10.47;53.02;95885.91;29395;213;63004;-53
2024/02/22 00:22:23;;;;;;;0.50;0.50;;;;;;;10.45;53.11;95890.03;29395;202;63008;-53
2024/02/22 00:22:54;;;;;;;0.50;0.50;;;;;;;10.41;52.93;95887.16;29394;251;64009;-53
2024/02/22 00:23:26;;;;;;;0.50;0.50;;;;;;;10.42;52.85;95880.63;29395;244;63009;-54
2024/02/22 00:23:57;;;;;;;0.50;0.50;;;;;;;10.44;52.98;95883.81;29395;209;63005;-54
2024/02/22 00:24:28;;;;;;;0.60;0.60;;;;;;;10.46;52.72;95897.06;29395;251;63009;-53
2024/02/22 00:24:59;;;;;;;0.85;0.85;;;;;;;10.54;52.32;95886.25;29395;217;63005;-68
2024/02/22 00:25:31;;;;;;;0.50;0.50;;;;;;;10.59;52.44;95896.16;29395;294;63009;-54
2024/02/22 00:26:02;;;;;;;0.85;0.85;;;;;;;10.54;52.74;95880.81;29395;268;63005;-53
2024/02/22 00:26:33;;;;;;;0.50;0.50;;;;;;;10.50;52.95;95887.19;29395;215;63009;-54
2024/02/22 00:27:05;;;;;;;0.50;0.50;;;;;;;10.44;52.80;95881.12;29395;232;63009;-52
2024/02/22 00:27:39;;;;;;;0.50;0.50;;;;;;;10.42;53.01;95877.91;29395;226;63009;-53
2024/02/22 00:28:11;;;;;;;0.50;0.50;;;;;;;10.39;53.76;95870.44;29394;208;64009;-53
2024/02/22 00:28:42;;;;;;;0.50;0.50;;;;;;;10.33;53.49;95877.13;29395;271;63009;-65
2024/02/22 00:29:14;;;;;;;0.50;0.50;;;;;;;10.29;53.77;95885.09;29395;233;63004;-54
2024/02/22 00:29:45;;;;;;;0.50;0.50;;;;;;;10.26;53.49;95874.88;29395;263;63010;-54
2024/02/22 00:30:16;;;;;;;0.80;0.80;;;;;;;10.27;54.22;95872.94;29395;203;63005;-69
2024/02/22 00:30:49;;;;;;;0.50;0.50;;;;;;;10.39;53.61;95875.88;29395;239;63009;-57
2024/02/22 00:31:20;;;;;;;0.50;0.50;;;;;;;10.40;53.48;95861.97;29395;197;63005;-65
2024/02/22 00:31:53;;;;;;;0.50;0.50;;;;;;;10.37;53.43;95869.97;29395;216;63009;-54
2024/02/22 00:32:26;;;;;;;0.50;0.50;;;;;;;10.32;53.98;95875.53;29395;304;63005;-53
2024/02/22 00:32:57;;;;;;;0.50;0.50;;;;;;;10.34;53.94;95857.81;29395;204;63009;-53
2024/02/22 00:33:29;;;;;;;0.50;0.50;;;;;;;10.31;53.79;95873.91;29394;209;64009;-54
2024/02/22 00:34:00;;;;;;;0.50;0.50;;;;;;;10.31;54.35;95876.63;29395;208;63009;-53
2024/02/22 00:34:31;;;;;;;0.50;0.50;;;;;;;10.26;54.64;95882.19;29395;208;63004;-63
2024/02/22 00:35:06;;;;;;;0.50;0.50;;;;;;;10.25;54.55;95883.31;29395;202;63009;-64
2024/02/22 00:35:37;;;;;;;0.50;0.50;;;;;;;10.24;54.40;95884.44;29395;202;63004;-56
2024/02/22 00:36:09;;;;;;;0.50;0.50;;;;;;;10.31;54.34;95872.00;29395;215;63008;-54
2024/02/22 00:36:42;;;;;;;0.55;0.55;;;;;;;10.38;54.08;95860.72;29395;208;63004;-59
2024/02/22 00:37:13;;;;;;;0.95;0.95;;;;;;;10.39;54.67;95873.94;29395;197;63008;-56
2024/02/22 00:37:44;;;;;;;0.50;0.50;;;;;;;10.43;54.34;95867.88;29395;197;63005;-53
2024/02/22 00:38:16;;;;;;;0.50;0.50;;;;;;;10.43;54.28;95865.16;29395;225;63009;-53
2024/02/22 00:38:47;;;;;;;0.50;0.50;;;;;;;10.38;54.94;95876.97;29394;215;64009;-53
2024/02/22 00:39:18;;;;;;;0.75;0.75;;;;;;;10.34;54.71;95874.09;29395;235;63009;-53
2024/02/22 00:39:49;;;;;;;0.90;0.90;;;;;;;10.33;54.95;95866.28;29395;232;63005;-53
2024/02/22 00:40:22;;;;;;;0.50;0.50;;;;;;;10.28;54.91;95875.34;29395;225;63011;-55
2024/02/22 00:40:53;;;;;;;0.50;0.50;;;;;;;10.25;54.71;95875.19;29395;258;63005;-53
2024/02/22 00:41:24;;;;;;;0.50;0.50;;;;;;;10.25;55.10;95864.34;29395;212;63012;-57
2024/02/22 00:41:56;;;;;;;0.50;0.50;;;;;;;10.32;54.83;95870.91;29394;217;64004;-53
2024/02/22 00:42:27;;;;;;;0.50;0.50;;;;;;;10.30;55.29;95872.31;29395;255;63009;-53
2024/02/22 00:42:58;;;;;;;0.80;0.80;;;;;;;10.29;55.19;95859.88;29395;196;63004;-54
2024/02/22 00:43:29;;;;;;;0.50;0.50;;;;;;;10.25;55.39;95864.34;29395;218;63008;-53
2024/02/22 00:44:01;;;;;;;0.50;0.50;;;;;;;10.27;55.55;95862.91;29394;226;64008;-52
2024/02/22 00:44:32;;;;;;;1.95;0.70;;;;;;;10.26;56.14;95857.81;29395;214;63009;-53
2024/02/22 00:45:04;;;;;;;0.60;0.60;;;;;;;10.26;55.38;95855.09;29395;200;63005;-57
2024/02/22 00:45:35;;;;;;;0.50;0.50;;;;;;;10.24;55.53;95857.31;29395;208;63023;-54
2024/02/22 00:46:07;;;;;;;0.50;0.50;;;;;;;10.23;55.80;95855.72;29395;258;63005;-53
2024/02/22 00:46:38;;;;;;;0.50;0.50;;;;;;;10.18;55.76;95863.97;29395;273;63009;-55
2024/02/22 00:47:09;;;;;;;0.50;0.50;;;;;;;10.16;56.09;95866.19;29395;219;63005;-55
2024/02/22 00:47:41;;;;;;;0.50;0.50;;;;;;;10.12;56.21;95862.50;29395;214;63012;-53
2024/02/22 00:48:12;;;;;;;0.70;0.70;;;;;;;10.08;56.68;95879.38;29395;251;63005;-59
2024/02/22 00:48:44;;;;;;;0.50;0.50;;;;;;;10.06;56.58;95862.66;29394;242;64009;-54
2024/02/22 00:49:15;;;;;;;0.50;0.50;;;;;;;10.05;57.20;95871.88;29394;213;64009;-54
2024/02/22 00:49:47;;;;;;;0.50;0.50;;;;;;;10.03;57.04;95857.88;29395;325;63009;-54
2024/02/22 00:50:19;;;;;;;0.50;0.50;;;;;;;10.03;57.21;95857.88;29395;218;63004;-53
2024/02/22 00:50:50;;;;;;;0.90;0.90;;;;;;;10.09;56.86;95853.88;29395;266;63009;-54
2024/02/22 00:51:21;;;;;;;1.08;1.00;;;;;;;10.19;56.93;95854.72;29395;224;63004;-56
2024/02/22 00:51:52;;;;;;;0.55;0.55;;;;;;;10.21;56.69;95856.03;29395;215;63009;-54
2024/02/22 00:52:24;;;;;;;0.50;0.50;;;;;;;10.23;56.50;95861.13;29395;259;63005;-55
2024/02/22 00:52:57;;;;;;;0.50;0.50;;;;;;;10.22;57.07;95864.97;29395;214;63009;-60
2024/02/22 00:53:30;;;;;;;0.60;0.60;;;;;;;10.27;56.42;95853.97;29395;269;63005;-52
2024/02/22 00:54:01;;;;;;;0.50;0.50;;;;;;;10.26;56.71;95860.50;29395;197;63009;-55
2024/02/22 00:54:32;;;;;;;0.50;0.50;;;;;;;10.19;57.35;95850.13;29394;199;64009;-54
2024/02/22 00:55:05;;;;;;;0.50;0.50;;;;;;;10.18;57.26;95845.78;29395;205;63009;-53
2024/02/22 00:55:36;;;;;;;0.60;0.60;;;;;;;10.16;57.50;95836.38;29395;262;63005;-55
2024/02/22 00:56:08;;;;;;;0.70;0.70;;;;;;;10.13;57.51;95853.25;29395;212;63009;-54
2024/02/22 00:56:39;;;;;;;0.50;0.50;;;;;;;10.05;57.45;95850.22;29395;262;63004;-54
2024/02/22 00:57:14;;;;;;;0.50;0.50;;;;;;;9.98;57.52;95844.47;29395;252;63009;-53
2024/02/22 00:57:45;;;;;;;0.50;0.50;;;;;;;9.96;57.72;95835.84;29395;202;63004;-57
2024/02/22 00:58:16;;;;;;;0.50;0.50;;;;;;;9.99;57.54;95842.56;29395;239;63009;-54
2024/02/22 00:58:48;;;;;;;0.60;0.60;;;;;;;10.00;57.93;95838.72;29394;198;64008;-53
2024/02/22 00:59:19;;;;;;;0.50;0.50;;;;;;;10.00;58.21;95841.44;29395;232;63008;-55
2024/02/22 00:59:50;;;;;;;0.50;0.50;;;;;;;9.97;58.07;95848.28;29395;203;63005;-54
2024/02/22 01:00:21;;;;;;;0.60;0.60;;;;;;;9.93;58.58;95833.78;29395;206;63009;-54
2024/02/22 01:00:52;;;;;;;0.62;0.62;;;;;;;9.87;58.79;95837.72;29395;204;63005;-53
2024/02/22 01:01:24;;;;;;;0.50;0.50;;;;;;;9.84;58.84;95838.34;29395;197;63009;-54
2024/02/22 01:01:56;;;;;;;0.50;0.50;;;;;;;9.81;58.65;95844.41;29395;199;63002;-53
2024/02/22 01:02:27;;;;;;;0.50;0.50;;;;;;;9.82;58.72;95826.22;29395;243;63009;-55
2024/02/22 01:03:00;;;;;;;0.50;0.50;;;;;;;9.81;59.18;95833.56;29395;227;63005;-54
2024/02/22 01:03:31;;;;;;;0.50;0.50;;;;;;;9.82;59.07;95835.16;29395;226;63009;-53
2024/02/22 01:04:03;;;;;;;0.50;0.50;;;;;;;9.86;59.11;95838.03;29394;256;64009;-54
2024/02/22 01:04:34;;;;;;;0.50;0.50;;;;;;;9.86;58.86;95841.56;29395;233;63009;-57
2024/02/22 01:05:06;;;;;;;0.50;0.50;;;;;;;9.85;58.97;95833.72;29395;253;63004;-56
2024/02/22 01:05:38;;;;;;;0.50;0.50;;;;;;;9.80;59.96;95837.38;29395;210;63009;-55
2024/02/22 01:06:11;;;;;;;0.50;0.50;;;;;;;9.84;59.75;95837.56;29395;209;63004;-54
2024/02/22 01:06:42;;;;;;;0.50;0.50;;;;;;;9.84;59.75;95840.25;29395;197;63015;-53
2024/02/22 01:07:14;;;;;;;0.50;0.50;;;;;;;9.81;59.60;95833.56;29395;236;63005;-54
2024/02/22 01:07:45;;;;;;;0.50;0.50;;;;;;;9.84;60.14;95843.78;29394;200;64014;-55
2024/02/22 01:08:16;;;;;;;0.95;0.80;;;;;;;9.88;60.52;95827.69;29395;231;63005;-54
2024/02/22 01:08:47;;;;;;;0.52;0.52;;;;;;;9.88;61.10;95843.94;29395;227;63009;-55
2024/02/22 01:09:19;;;;;;;0.50;0.50;;;;;;;9.88;60.67;95842.03;29395;235;63005;-55
2024/02/22 01:09:50;;;;;;;0.50;0.50;;;;;;;9.94;61.00;95861.66;29395;199;63009;-57
2024/02/22 01:10:21;;;;;;;0.50;0.50;;;;;;;10.03;60.31;95828.06;29395;198;63012;-52
2024/02/22 01:10:53;;;;;;;0.50;0.50;;;;;;;9.99;60.29;95821.69;29395;234;63009;-54
2024/02/22 01:11:25;;;;;;;0.50;0.50;;;;;;;9.91;61.14;95827.88;29395;256;63004;-53
2024/02/22 01:11:59;;;;;;;0.50;0.50;;;;;;;9.84;61.38;95841.06;29395;215;63009;-55
2024/02/22 01:12:31;;;;;;;0.50;0.50;;;;;;;9.90;61.16;95834.41;29395;207;63004;-55
2024/02/22 01:13:03;;;;;;;0.50;0.50;;;;;;;9.92;61.60;95837.59;29394;250;64013;-54
2024/02/22 01:13:34;;;;;;;0.50;0.50;;;;;;;9.92;61.83;95834.88;29394;226;64009;-54
2024/02/22 01:14:05;;;;;;;0.50;0.50;;;;;;;9.87;62.22;95853.19;29395;197;63008;-54
2024/02/22 01:14:37;;;;;;;0.50;0.50;;;;;;;9.81;61.83;95849.81;29395;223;63008;-53
2024/02/22 01:15:09;;;;;;;0.60;0.60;;;;;;;9.86;61.91;95833.41;29395;233;63009;-53
2024/02/22 01:15:44;;;;;;;0.50;0.50;;;;;;;9.84;61.67;95851.09;29394;216;64005;-54
2024/02/22 01:16:18;;;;;;;0.60;0.60;;;;;;;9.92;61.92;95840.31;29395;273;63009;-61
2024/02/22 01:16:50;;;;;;;0.50;0.50;;;;;;;9.91;61.92;95833.28;29395;280;63005;-52
2024/02/22 01:17:22;;;;;;;0.60;0.60;;;;;;;9.90;62.59;95826.25;29395;265;63009;-52
2024/02/22 01:17:56;;;;;;;0.50;0.50;;;;;;;9.85;62.37;95829.13;29395;227;63005;-52
2024/02/22 01:18:27;;;;;;;0.50;0.50;;;;;;;9.88;62.35;95847.47;29395;235;63009;-58
2024/02/22 01:19:00;;;;;;;0.50;0.50;;;;;;;9.86;62.61;95836.12;29394;232;64009;-53
2024/02/22 01:19:32;;;;;;;0.70;0.70;;;;;;;9.89;62.72;95832.00;29395;261;63009;-57
2024/02/22 01:20:04;;;;;;;0.50;0.50;;;;;;;9.94;62.51;95829.94;29395;210;63004;-52
2024/02/22 01:20:35;;;;;;;0.60;0.60;;;;;;;9.87;62.56;95832.31;29395;345;63009;-53
2024/02/22 01:21:07;;;;;;;0.75;0.75;;;;;;;9.85;62.77;95826.41;29395;230;63004;-53
2024/02/22 01:21:38;;;;;;;0.50;0.50;;;;;;;9.81;63.31;95824.63;29395;218;63008;-54
2024/02/22 01:22:10;;;;;;;0.55;0.55;;;;;;;9.75;63.31;95829.38;29395;204;63005;-54
2024/02/22 01:22:41;;;;;;;0.68;0.68;;;;;;;9.74;63.53;95827.78;29395;238;63009;-54
2024/02/22 01:23:15;;;;;;;1.12;1.12;;;;;;;9.69;63.56;95826.03;29395;199;63005;-53
2024/02/22 01:23:46;;;;;;;0.50;0.50;;;;;;;9.67;63.98;95822.03;29395;224;63005;-54
2024/02/22 01:24:21;;;;;;;0.50;0.50;;;;;;;9.72;63.98;95832.72;29394;233;64009;-53
2024/02/22 01:24:52;;;;;;;0.60;0.60;;;;;;;9.74;64.32;95822.38;29395;202;63009;-54
2024/02/22 01:25:24;;;;;;;0.50;0.50;;;;;;;9.67;63.86;95822.84;29395;260;63005;-53
2024/02/22 01:25:58;;;;;;;0.50;0.50;;;;;;;9.66;64.06;95823.16;29395;235;63009;-54
2024/02/22 01:26:31;;;;;;;0.50;0.50;;;;;;;9.61;64.23;95826.81;29395;209;63008;-55
2024/02/22 01:27:07;;;;;;;0.55;0.55;;;;;;;9.58;65.80;95834.75;29395;236;63009;-58
2024/02/22 01:27:39;;;;;;;0.50;0.50;;;;;;;9.51;65.24;95837.09;29395;219;63009;-54
2024/02/22 01:28:12;;;;;;;0.90;0.90;;;;;;;9.46;65.70;95826.41;29395;203;63009;-54
2024/02/22 01:28:44;;;;;;;0.50;0.50;;;;;;;9.47;65.36;95822.59;29395;252;63004;-54
2024/02/22 01:29:17;;;;;;;0.50;0.50;;;;;;;9.45;65.49;95833.72;29395;322;63008;-54
2024/02/22 01:29:48;;;;;;;0.50;0.50;;;;;;;9.49;66.01;95807.63;29394;266;64009;-53
2024/02/22 01:30:19;;;;;;;0.60;0.60;;;;;;;9.55;65.77;95824.53;29395;198;63009;-55
2024/02/22 01:30:51;;;;;;;0.60;0.60;;;;;;;9.63;65.55;95821.88;29395;224;63001;-54
2024/02/22 01:31:22;;;;;;;0.60;0.60;;;;;;;9.65;65.15;95824.28;29394;224;64013;-52
2024/02/22 01:31:53;;;;;;;0.50;0.50;;;;;;;9.60;65.87;95805.44;29395;543;63005;-53
2024/02/22 01:32:25;;;;;;;0.50;0.50;;;;;;;9.56;65.76;95831.56;29395;241;63009;-56
2024/02/22 01:32:56;;;;;;;0.50;0.50;;;;;;;9.59;66.25;95820.09;29395;311;63008;-60
2024/02/22 01:33:27;;;;;;;0.50;0.50;;;;;;;9.58;65.85;95813.88;29395;246;63009;-62
2024/02/22 01:33:58;;;;;;;0.95;0.95;;;;;;;9.58;65.82;95808.47;29395;268;63013;-53
2024/02/22 01:34:29;;;;;;;0.50;0.50;;;;;;;9.56;66.02;95818.00;29395;227;63009;-53
2024/02/22 01:35:01;;;;;;;0.50;0.50;;;;;;;9.51;65.97;95802.69;29395;208;63004;-53
2024/02/22 01:35:33;;;;;;;0.50;0.50;;;;;;;9.53;66.46;95805.09;29395;321;63009;-56
2024/02/22 01:36:08;;;;;;;0.50;0.50;;;;;;;9.54;66.39;95798.56;29395;287;63004;-54
2024/02/22 01:36:40;;;;;;;0.50;0.50;;;;;;;9.53;66.52;95815.94;29394;207;64013;-53
2024/02/22 01:37:11;;;;;;;1.37;1.37;;;;;;;9.56;66.42;95790.94;29395;372;63005;-54
2024/02/22 01:37:43;;;;;;;0.70;0.70;;;;;;;9.57;66.70;95797.94;29395;233;63009;-55
2024/02/22 01:38:15;;;;;;;0.50;0.50;;;;;;;9.61;66.71;95801.63;29395;219;63005;-53
2024/02/22 01:38:46;;;;;;;0.50;0.50;;;;;;;9.54;67.17;95809.41;29395;252;63009;-54
2024/02/22 01:39:17;;;;;;;0.50;0.50;;;;;;;9.53;66.96;95789.62;29395;209;63005;-54
2024/02/22 01:39:49;;;;;;;0.75;0.75;;;;;;;9.57;67.02;95789.81;29395;240;63009;-56
2024/02/22 01:40:20;;;;;;;0.62;0.62;;;;;;;9.63;67.07;95816.47;29395;223;63005;-54
2024/02/22 01:40:51;;;;;;;0.60;0.60;;;;;;;9.57;67.54;95819.59;29395;256;63009;-54
2024/02/22 01:41:22;;;;;;;0.60;0.60;;;;;;;9.53;67.39;95810.50;29395;217;63004;-53
2024/02/22 01:41:54;;;;;;;0.70;0.70;;;;;;;9.50;67.48;95805.72;29394;292;64013;-52
2024/02/22 01:42:29;;;;;;;0.68;0.68;;;;;;;9.49;67.77;95793.28;29394;216;64009;-51
2024/02/22 01:43:00;;;;;;;6.60;2.15;;;;;;;9.50;67.82;95805.72;29395;204;63009;-67
2024/02/22 01:43:32;;;;;;;0.60;0.60;;;;;;;9.49;67.47;95796.78;29395;196;63004;-54
2024/02/22 01:44:04;;;;;;;0.50;0.50;;;;;;;9.43;67.60;95795.31;29395;301;63008;-54
2024/02/22 01:44:35;;;;;;;0.50;0.50;;;;;;;9.49;67.68;95793.28;29395;224;63004;-56
2024/02/22 01:45:07;;;;;;;0.50;0.50;;;;;;;9.46;67.94;95783.06;29395;246;63009;-54
2024/02/22 01:45:38;;;;;;;0.50;0.50;;;;;;;9.40;68.51;95790.53;29395;312;63005;-52
2024/02/22 01:46:10;;;;;;;0.55;0.55;;;;;;;9.38;68.62;95793.53;29395;198;63009;-53
2024/02/22 01:46:41;;;;;;;0.50;0.50;;;;;;;9.39;68.54;95789.72;29395;206;63005;-53
2024/02/22 01:47:13;;;;;;;0.60;0.60;;;;;;;9.41;68.62;95795.63;29395;202;63009;-54
2024/02/22 01:47:44;;;;;;;0.60;0.60;;;;;;;9.43;68.84;95779.09;29394;248;64009;-54
2024/02/22 01:48:17;;;;;;;0.50;0.50;;;;;;;9.43;68.84;95783.69;29395;198;63009;-52
2024/02/22 01:48:49;;;;;;;0.50;0.50;;;;;;;9.35;68.84;95791.50;29394;203;64009;-54
2024/02/22 01:49:22;;;;;;;0.50;0.50;;;;;;;9.33;69.48;95780.19;29395;229;63009;-54
2024/02/22 01:49:53;;;;;;;0.50;0.50;;;;;;;9.32;69.06;95789.41;29394;414;64009;-53
2024/02/22 01:50:25;;;;;;;0.50;0.50;;;;;;;9.30;68.99;95791.63;29395;214;63009;-54
2024/02/22 01:50:57;;;;;;;0.60;0.60;;;;;;;9.33;69.69;95780.19;29395;441;63004;-52
2024/02/22 01:51:30;;;;;;;0.50;0.50;;;;;;;9.28;69.46;95788.44;29395;222;63013;-52
2024/02/22 01:52:03;;;;;;;0.93;0.93;;;;;;;9.30;69.69;95780.78;29395;217;63005;-53
2024/02/22 01:52:34;;;;;;;0.50;0.50;;;;;;;9.29;69.99;95790.03;29395;200;63009;-55
2024/02/22 01:53:06;;;;;;;0.50;0.50;;;;;;;9.26;69.63;95774.41;29395;233;63005;-53
2024/02/22 01:53:42;;;;;;;0.50;0.50;;;;;;;9.24;69.96;95771.22;29394;294;64013;-52
2024/02/22 01:54:13;;;;;;;0.50;0.50;;;;;;;9.23;70.36;95774.22;29395;246;63005;-53
2024/02/22 01:54:45;;;;;;;0.50;0.50;;;;;;;9.21;70.29;95766.41;29395;229;63009;-53
2024/02/22 01:55:20;;;;;;;0.60;0.60;;;;;;;9.32;69.93;95775.88;29395;202;63005;-55
2024/02/22 01:55:59;;;;;;;0.50;0.50;;;;;;;9.38;70.20;95773.78;29395;246;63009;-56
2024/02/22 01:56:31;;;;;;;0.50;0.50;;;;;;;9.37;70.04;95777.63;29395;202;63004;-53
2024/02/22 01:57:04;;;;;;;0.60;0.60;;;;;;;9.34;70.11;95770.94;29395;217;63009;-55
2024/02/22 01:57:36;;;;;;;0.60;0.60;;;;;;;9.35;70.33;95772.53;29395;297;63004;-68
2024/02/22 01:58:08;;;;;;;0.50;0.50;;;;;;;9.43;70.24;95759.31;29395;357;63008;-55
2024/02/22 01:58:40;;;;;;;0.50;0.50;;;;;;;9.39;70.59;95767.28;29394;417;64008;-55
2024/02/22 01:59:11;;;;;;;3.05;2.95;;;;;;;9.41;70.44;95770.47;29395;225;63014;-56
2024/02/22 01:59:43;;;;;;;0.60;0.60;;;;;;;9.37;70.90;95743.22;29395;198;63005;-55
2024/02/22 02:00:17;;;;;;;0.50;0.50;;;;;;;9.32;70.33;95751.50;29395;261;63009;-54
2024/02/22 02:00:48;;;;;;;0.60;0.60;;;;;;;9.32;70.83;95784.00;29395;202;63005;-61
2024/02/22 02:01:22;;;;;;;1.15;1.05;;;;;;;9.45;70.56;95765.22;29395;214;63009;-60
2024/02/22 02:01:54;;;;;;;0.62;0.62;;;;;;;9.51;70.41;95770.19;29395;212;63005;-53
2024/02/22 02:02:29;;;;;;;1.00;0.82;;;;;;;9.49;70.84;95777.03;29395;547;63017;-53
2024/02/22 02:03:00;;;;;;;0.50;0.50;;;;;;;9.51;70.20;95753.16;29395;435;63005;-53
2024/02/22 02:03:32;;;;;;;0.50;0.50;;;;;;;9.46;70.32;95761.41;29395;413;63009;-52
2024/02/22 02:04:04;;;;;;;0.50;0.50;;;;;;;9.39;70.34;95761.84;29394;442;64009;-70
2024/02/22 02:04:37;;;;;;;0.50;0.50;;;;;;;9.40;70.94;95758.03;29395;243;63009;-53
2024/02/22 02:05:08;;;;;;;0.50;0.50;;;;;;;9.36;71.13;95767.91;29395;418;63004;-55
2024/02/22 02:05:39;;;;;;;0.50;0.50;;;;;;;9.30;72.08;95748.31;29395;224;63009;-55
2024/02/22 02:06:10;;;;;;;0.57;0.57;;;;;;;9.29;72.12;95759.44;29395;419;63004;-56
2024/02/22 02:06:43;;;;;;;0.60;0.60;;;;;;;9.24;72.22;95765.78;29395;213;63009;-54
2024/02/22 02:07:14;;;;;;;0.50;0.50;;;;;;;9.22;72.43;95750.97;29395;220;63005;-53
2024/02/22 02:07:46;;;;;;;0.50;0.50;;;;;;;9.19;72.65;95763.22;29395;222;63014;-53
2024/02/22 02:08:17;;;;;;;0.50;0.50;;;;;;;9.16;72.48;95763.84;29395;200;63005;-54
2024/02/22 02:08:49;;;;;;;0.50;0.50;;;;;;;9.14;73.43;95765.25;29395;212;63009;-53
2024/02/22 02:09:20;;;;;;;0.60;0.60;;;;;;;9.24;72.97;95763.09;29394;266;64009;-68
2024/02/22 02:09:55;;;;;;;0.60;0.60;;;;;;;9.29;73.23;95762.97;29395;213;63009;-53
2024/02/22 02:10:26;;;;;;;0.50;0.50;;;;;;;9.34;72.75;95748.50;29395;216;63005;-55
2024/02/22 02:10:58;;;;;;;0.60;0.60;;;;;;;9.30;73.09;95747.50;29395;202;63009;-52
2024/02/22 02:11:31;;;;;;;0.50;0.50;;;;;;;9.23;73.04;95761.50;29395;197;63004;-53
2024/02/22 02:12:03;;;;;;;0.50;0.50;;;;;;;9.14;74.18;95755.22;29395;242;63009;-53
2024/02/22 02:12:35;;;;;;;0.70;0.70;;;;;;;9.16;73.94;95754.91;29395;511;63004;-65
2024/02/22 02:13:06;;;;;;;0.60;0.60;;;;;;;9.14;75.05;95754.44;29395;246;63009;-54
2024/02/22 02:13:38;;;;;;;0.50;0.50;;;;;;;9.05;75.08;95763.28;29395;239;63004;-54
2024/02/22 02:14:09;;;;;;;0.60;0.60;;;;;;;9.05;74.53;95747.06;29395;251;63009;-53
2024/02/22 02:14:40;;;;;;;0.50;0.50;;;;;;;9.02;74.76;95758.50;29394;202;64009;-54
2024/02/22 02:15:12;;;;;;;0.62;0.62;;;;;;;9.12;74.79;95749.31;29395;342;63009;-63
2024/02/22 02:15:43;;;;;;;0.88;0.88;;;;;;;9.17;74.36;95749.19;29395;202;63005;-56
2024/02/22 02:16:14;;;;;;;0.50;0.50;;;;;;;9.26;73.79;95733.81;29394;379;64013;-57
2024/02/22 02:16:46;;;;;;;0.60;0.60;;;;;;;9.23;74.30;95739.84;29395;220;63005;-53
2024/02/22 02:17:20;;;;;;;0.50;0.50;;;;;;;9.13;75.30;95753.63;29395;378;63009;-52
2024/02/22 02:17:51;;;;;;;0.50;0.50;;;;;;;9.08;74.67;95740.22;29395;282;63005;-53
2024/02/22 02:18:23;;;;;;;0.50;0.50;;;;;;;9.03;74.44;95738.44;29395;263;63009;-53
2024/02/22 02:18:54;;;;;;;0.50;0.50;;;;;;;9.09;74.44;95736.41;29395;366;63004;-52
2024/02/22 02:19:26;;;;;;;0.60;0.60;;;;;;;9.10;74.71;95754.25;29395;529;63009;-55
2024/02/22 02:20:06;;;;;;;0.50;0.50;;;;;;;9.12;75.29;95735.00;29395;270;63004;-54
2024/02/22 02:20:56;;;;;;;0.50;0.50;;;;;;;9.07;75.57;95727.81;29394;425;64009;-54
2024/02/22 02:21:59;;;;;;;0.50;0.50;;;;;;;9.10;74.76;95748.03;29416;199;64008;-53
2024/02/22 02:23:20;;;;;;;0.60;0.60;;;;;;;9.13;75.00;95726.56;29395;257;63009;-54
2024/02/22 02:24:31;;;;;;;0.70;0.70;;;;;;;9.17;75.10;95726.75;29395;264;63005;-53
2024/02/22 02:25:09;;;;;;;0.70;0.70;;;;;;;9.16;75.54;95725.94;29395;237;63009;-55
2024/02/22 02:25:40;;;;;;;0.55;0.55;;;;;;;9.13;75.27;95723.88;29394;251;64005;-53
2024/02/22 02:26:12;;;;;;;0.50;0.50;;;;;;;9.06;75.51;95745.16;29395;208;63009;-54
2024/02/22 02:26:44;;;;;;;0.50;0.50;;;;;;;9.02;76.27;95730.66;29394;198;64009;-56
2024/02/22 02:27:19;;;;;;;0.50;0.50;;;;;;;9.02;75.79;95736.06;29395;324;63027;-55
2024/02/22 02:27:50;;;;;;;0.50;0.50;;;;;;;9.06;75.64;95737.03;29395;240;63004;-55
2024/02/22 02:28:22;;;;;;;0.50;0.50;;;;;;;9.04;76.35;95723.81;29395;247;63008;-55
2024/02/22 02:28:53;;;;;;;0.60;0.60;;;;;;;9.04;76.00;95718.41;29395;202;63004;-54
2024/02/22 02:29:25;;;;;;;0.50;0.50;;;;;;;9.04;76.66;95723.03;29395;234;63009;-55
2024/02/22 02:29:56;;;;;;;1.05;1.05;;;;;;;9.11;75.79;95723.38;29395;274;63005;-58
2024/02/22 02:30:27;;;;;;;0.50;0.50;;;;;;;9.10;75.99;95719.06;29395;202;63009;-56
2024/02/22 02:31:00;;;;;;;0.60;0.60;;;;;;;9.13;75.96;95717.66;29394;240;64005;-54
2024/02/22 02:31:31;;;;;;;0.60;0.60;;;;;;;9.17;75.71;95719.44;29395;249;63009;-55
2024/02/22 02:32:04;;;;;;;0.57;0.57;;;;;;;9.18;75.67;95706.69;29394;198;64009;-53
2024/02/22 02:32:36;;;;;;;0.50;0.50;;;;;;;9.12;75.71;95714.16;29395;223;63009;-55
2024/02/22 02:33:08;;;;;;;0.50;0.50;;;;;;;9.12;75.55;95714.16;29394;417;64005;-54
2024/02/22 02:33:40;;;;;;;0.50;0.50;;;;;;;9.16;75.77;95708.91;29395;405;63009;-53
2024/02/22 02:34:14;;;;;;;0.50;0.50;;;;;;;9.12;75.44;95716.84;29395;243;63004;-53
2024/02/22 02:34:49;;;;;;;0.50;0.50;;;;;;;9.03;76.08;95710.59;29395;441;63019;-53
2024/02/22 02:35:20;;;;;;;0.50;0.50;;;;;;;9.01;75.95;95715.53;29395;223;63007;-55
2024/02/22 02:35:52;;;;;;;0.70;0.70;;;;;;;8.96;76.79;95705.66;29395;250;63007;-53